createdAt,value
2018-02-25T00:04:12.682Z,"    0"
2018-02-25T00:09:08.981Z,"    0"
2018-02-25T00:14:10.700Z,"    0"
2018-02-25T00:19:10.656Z,"    0"
2018-02-25T00:24:07.744Z,"    0"
2018-02-25T00:29:07.662Z,"    0"
2018-02-25T00:34:08.102Z,"    0"
2018-02-25T00:39:06.970Z,"    0"
2018-02-25T00:44:02.928Z,"    0"
2018-02-25T00:49:04.576Z,"    0"
2018-02-25T00:54:04.044Z,"    0"
2018-02-25T00:59:00.034Z,"    0"
2018-02-25T01:03:58.288Z,"    0"
2018-02-25T01:13:59.608Z,"    0"
2018-02-25T01:18:59.045Z,"    0"
2018-02-25T01:23:59.299Z,"    0"
2018-02-25T01:29:00.856Z,"    0"
2018-02-25T01:34:00.388Z,"    0"
2018-02-25T01:38:59.971Z,"    0"
2018-02-25T01:44:00.527Z,"    0"
2018-02-25T01:48:59.982Z,"    0"
2018-02-25T01:54:00.067Z,"    0"
2018-02-25T02:04:05.639Z,"    0"
2018-02-25T02:09:05.778Z,"    0"
2018-02-25T02:14:02.156Z,"    0"
2018-02-25T02:18:59.242Z,"    0"
2018-02-25T02:24:00.326Z,"    0"
2018-02-25T02:28:58.717Z,"    0"
2018-02-25T02:44:07.818Z,"    0"
2018-02-25T02:49:04.316Z,"    0"
2018-02-25T02:54:08.250Z,"    0"
2018-02-25T02:59:10.908Z,"    0"
2018-02-25T03:04:13.186Z,"    0"
2018-02-25T03:14:21.634Z,"    0"
2018-02-25T03:19:20.967Z,"    0"
2018-02-25T03:24:20.313Z,"    0"
2018-02-25T03:29:17.092Z,"    0"
2018-02-25T03:34:18.364Z,"    0"
2018-02-25T03:44:17.690Z,"    0"
2018-02-25T03:49:19.983Z,"    0"
2018-02-25T03:54:20.636Z,"    0"
2018-02-25T03:59:20.278Z,"    0"
2018-02-25T04:09:23.727Z,"    0"
2018-02-25T04:14:24.709Z,"    0"
2018-02-25T04:19:24.114Z,"    0"
2018-02-25T04:24:20.637Z,"    0"
2018-02-25T04:29:21.225Z,"    0"
2018-02-25T04:34:18.092Z,"    0"
2018-02-25T04:39:24.401Z,"    0"
2018-02-25T04:44:22.614Z,"    0"
2018-02-25T04:49:25.882Z,"    0"
2018-02-25T04:54:26.059Z,"    0"
2018-02-25T04:59:26.513Z,"    0"
2018-02-25T05:04:25.902Z,"    0"
2018-02-25T05:09:26.296Z,"    0"
2018-02-25T05:14:24.276Z,"    0"
2018-02-25T05:19:23.656Z,"    0"
2018-02-25T05:24:19.594Z,"    0"
2018-02-25T05:29:19.733Z,"    0"
2018-02-25T05:34:16.163Z,"    0"
2018-02-25T05:39:12.002Z,"    0"
2018-02-25T05:44:12.078Z,"    0"
2018-02-25T05:49:11.567Z,"    0"
2018-02-25T05:54:11.841Z,"    4"
2018-02-25T05:59:11.091Z,"    4"
2018-02-25T06:04:08.605Z,"   12"
2018-02-25T06:09:09.178Z,"   28"
2018-02-25T06:14:07.685Z,"   56"
2018-02-25T06:19:12.392Z,"  104"
2018-02-25T06:29:15.840Z,"  280"
2018-02-25T06:34:11.141Z,"  400"
2018-02-25T06:39:14.539Z,"  532"
2018-02-25T06:44:14.602Z,"  684"
2018-02-25T06:49:14.436Z,"  840"
2018-02-25T06:54:16.118Z,"  992"
2018-02-25T06:59:11.909Z," 1144"
2018-02-25T07:14:15.431Z," 1652"
2018-02-25T07:19:14.877Z," 2136"
2018-02-25T07:29:12.643Z," 2284"
2018-02-25T07:34:13.049Z," 2824"
2018-02-25T07:39:12.357Z," 2572"
2018-02-25T07:44:11.907Z," 2992"
2018-02-25T07:49:07.674Z," 2612"
2018-02-25T07:54:08.341Z," 3584"
2018-02-25T07:59:05.837Z," 2668"
2018-02-25T08:04:03.121Z," 3072"
2018-02-25T08:09:03.050Z," 3872"
2018-02-25T08:14:00.792Z," 3124"
2018-02-25T08:24:00.079Z," 3396"
2018-02-25T08:28:55.952Z," 4440"
2018-02-25T08:33:55.749Z," 6364"
2018-02-25T08:38:54.820Z," 7408"
2018-02-25T08:48:51.933Z," 5984"
2018-02-25T08:53:52.013Z," 6028"
2018-02-25T08:58:51.506Z," 7360"
2018-02-25T09:08:49.964Z," 7784"
2018-02-25T09:13:50.273Z," 5684"
2018-02-25T09:18:48.894Z," 7296"
2018-02-25T09:23:49.259Z," 4840"
2018-02-25T09:33:55.976Z," 8492"
2018-02-25T09:38:55.647Z,10020
2018-02-25T09:43:55.116Z," 6772"
2018-02-25T09:48:54.642Z," 9040"
2018-02-25T09:53:52.926Z," 8180"
2018-02-25T09:58:52.011Z,12008
2018-02-25T10:03:47.858Z," 7292"
2018-02-25T10:08:48.762Z,11744
2018-02-25T10:13:48.300Z," 6844"
2018-02-25T10:18:48.148Z,11684
2018-02-25T10:23:46.845Z,18720
2018-02-25T10:28:42.747Z,11660
2018-02-25T10:33:38.818Z,17376
2018-02-25T10:38:38.806Z,18400
2018-02-25T10:43:39.218Z,18528
2018-02-25T10:48:39.912Z,19968
2018-02-25T10:53:39.706Z,25280
2018-02-25T10:58:38.969Z,24800
2018-02-25T11:03:37.869Z,30272
2018-02-25T11:08:33.782Z,17152
2018-02-25T11:13:35.021Z,17824
2018-02-25T11:18:34.982Z,19936
2018-02-25T11:23:33.644Z,40736
2018-02-25T11:28:34.356Z,26208
2018-02-25T11:33:34.847Z,40224
2018-02-25T11:38:34.192Z,30336
2018-02-25T11:43:34.071Z,40640
2018-02-25T11:48:30.716Z,28864
2018-02-25T11:53:29.149Z,21312
2018-02-25T12:03:28.590Z,15764
2018-02-25T12:13:27.163Z,14068
2018-02-25T12:18:26.286Z,12104
2018-02-25T12:23:23.190Z,11792
2018-02-25T12:28:24.517Z,12176
2018-02-25T12:33:19.511Z,22816
2018-02-25T12:38:21.515Z," 9956"
2018-02-25T12:43:18.142Z,17632
2018-02-25T12:48:18.263Z,12548
2018-02-25T12:53:17.753Z,12404
2018-02-25T12:58:17.546Z,16672
2018-02-25T13:03:17.285Z," 9532"
2018-02-25T13:08:13.189Z," 6376"
2018-02-25T13:13:12.206Z,12044
2018-02-25T13:18:07.895Z,12672
2018-02-25T13:23:06.724Z," 7284"
2018-02-25T13:28:01.454Z," 4592"
2018-02-25T13:33:02.494Z," 4088"
2018-02-25T13:37:57.298Z," 4268"
2018-02-25T13:42:52.915Z," 4456"
2018-02-25T13:47:53.400Z," 4408"
2018-02-25T13:52:52.065Z," 4296"
2018-02-25T13:57:47.784Z," 4192"
2018-02-25T14:02:45.422Z," 3900"
2018-02-25T14:07:41.243Z," 3916"
2018-02-25T14:12:40.885Z," 4028"
2018-02-25T14:17:40.868Z," 4404"
2018-02-25T14:22:40.432Z," 5064"
2018-02-25T14:27:38.800Z," 6252"
2018-02-25T14:32:37.460Z," 4304"
2018-02-25T14:37:36.186Z," 4504"
2018-02-25T14:42:35.454Z," 4100"
2018-02-25T14:47:36.320Z," 4188"
2018-02-25T14:52:34.920Z," 3540"
2018-02-25T14:57:33.656Z," 2984"
2018-02-25T15:02:32.092Z," 3432"
2018-02-25T15:07:31.760Z," 3620"
2018-02-25T15:12:31.349Z," 4464"
2018-02-25T15:17:26.081Z," 4208"
2018-02-25T15:22:26.008Z," 4944"
2018-02-25T15:27:25.429Z," 5148"
2018-02-25T15:32:24.024Z," 4968"
2018-02-25T15:37:23.562Z," 2940"
2018-02-25T15:42:21.962Z," 2196"
2018-02-25T15:47:21.427Z," 1700"
2018-02-25T15:52:19.767Z," 1364"
2018-02-25T15:57:18.471Z," 1128"
2018-02-25T16:02:17.888Z,"  944"
2018-02-25T16:07:16.027Z,"  760"
2018-02-25T16:12:14.403Z,"  680"
2018-02-25T16:17:12.898Z,"  548"
2018-02-25T16:22:14.659Z,"  452"
2018-02-25T16:27:13.827Z,"  480"
2018-02-25T16:32:13.318Z,"  444"
2018-02-25T16:37:07.662Z,"  376"
2018-02-25T16:42:07.052Z,"  304"
2018-02-25T16:47:01.992Z,"  252"
2018-02-25T16:52:01.689Z,"  196"
2018-02-25T16:57:04.516Z,"  144"
2018-02-25T17:02:03.543Z,"  100"
2018-02-25T17:07:03.009Z,"   64"
2018-02-25T17:12:03.354Z,"   36"
2018-02-25T17:17:02.752Z,"   20"
2018-02-25T17:22:01.042Z,"    8"
2018-02-25T17:27:01.567Z,"    4"
2018-02-25T17:32:00.516Z,"    4"
2018-02-25T17:36:58.952Z,"    0"
2018-02-25T17:46:59.475Z,"    0"
2018-02-25T17:51:55.784Z,"    0"
2018-02-25T17:56:55.099Z,"    0"
2018-02-25T18:01:49.690Z,"    0"
2018-02-25T18:06:51.062Z,"    0"
2018-02-25T18:11:50.176Z,"    0"
2018-02-25T18:16:48.424Z,"    0"
2018-02-25T18:21:47.877Z,"    0"
2018-02-25T18:26:48.430Z,"    0"
2018-02-25T18:31:42.301Z,"    0"
2018-02-25T18:36:42.811Z,"    0"
2018-02-25T18:41:41.239Z,"    0"
2018-02-25T18:46:37.485Z,"    0"
2018-02-25T18:51:36.632Z,"    0"
2018-02-25T18:56:35.421Z,"    0"
2018-02-25T19:01:30.024Z,"    0"
2018-02-25T19:06:29.159Z,"    0"
2018-02-25T19:11:29.693Z,"    0"
2018-02-25T19:16:27.748Z,"    0"
2018-02-25T19:21:27.542Z,"    0"
2018-02-25T19:26:25.821Z,"    0"
2018-02-25T19:31:25.742Z,"    0"
2018-02-25T19:36:25.290Z,"    0"
2018-02-25T19:41:19.437Z,"    0"
2018-02-25T19:46:19.730Z,"    0"
2018-02-25T19:51:13.976Z,"    0"
2018-02-25T19:56:14.733Z,"    0"
2018-02-25T20:01:13.056Z,"    0"
2018-02-25T20:06:13.283Z,"    0"
2018-02-25T20:11:08.401Z,"    0"
2018-02-25T20:16:08.908Z,"    0"
2018-02-25T20:21:07.425Z,"    0"
2018-02-25T20:26:05.970Z,"    0"
2018-02-25T20:31:01.626Z,"    0"
2018-02-25T20:36:01.666Z,"    0"
2018-02-25T20:40:57.692Z,"    0"
2018-02-25T20:45:57.020Z,"    0"
2018-02-25T20:50:56.568Z,"    0"
2018-02-25T20:55:57.234Z,"    0"
2018-02-25T21:00:55.167Z,"    0"
2018-02-25T21:05:54.128Z,"    0"
2018-02-25T21:10:54.257Z,"    0"
2018-02-25T21:15:55.015Z,"    0"
2018-02-25T21:20:53.379Z,"    0"
2018-02-25T21:25:52.240Z,"    0"
2018-02-25T21:30:50.825Z,"    0"
2018-02-25T21:35:49.922Z,"    0"
2018-02-25T21:40:45.503Z,"    0"
2018-02-25T21:45:45.103Z,"    0"
2018-02-25T21:50:45.180Z,"    0"
2018-02-25T21:55:44.492Z,"    0"
2018-02-25T22:00:39.029Z,"    0"
2018-02-25T22:05:34.756Z,"    0"
2018-02-25T22:10:35.369Z,"    0"
2018-02-25T22:15:33.700Z,"    0"
2018-02-25T22:20:33.774Z,"    0"
2018-02-25T22:25:32.724Z,"    0"
2018-02-25T22:30:33.424Z,"    0"
2018-02-25T22:35:31.345Z,"    0"
2018-02-25T22:40:29.939Z,"    0"
2018-02-25T22:45:28.795Z,"    0"
2018-02-25T22:50:29.738Z,"    0"
2018-02-25T22:55:29.957Z,"    0"
2018-02-25T23:00:29.503Z,"    0"
2018-02-25T23:05:29.188Z,"    0"
2018-02-25T23:10:30.082Z,"    0"
2018-02-25T23:15:26.291Z,"    0"
2018-02-25T23:20:25.931Z,"    0"
2018-02-25T23:25:20.663Z,"    0"
2018-02-25T23:30:20.366Z,"    0"
2018-02-25T23:35:19.308Z,"    0"
2018-02-25T23:40:17.815Z,"    0"
2018-02-25T23:45:12.575Z,"    0"
2018-02-25T23:50:13.021Z,"    0"
2018-02-25T23:55:08.679Z,"    0"
